sensor_id;sensor_type;location;lat;lon;timestamp;P1;durP1;ratioP1;P2;durP2;ratioP2
67363;SDS011;54250;45.572;38.086;2023-12-07T00:01:06;1.15;;;1.05;;
67363;SDS011;54250;45.572;38.086;2023-12-07T00:03:32;1.98;;;1.42;;
67363;SDS011;54250;45.572;38.086;2023-12-07T00:05:58;1.48;;;1.15;;
67363;SDS011;54250;45.572;38.086;2023-12-07T00:08:24;2.63;;;2.30;;
67363;SDS011;54250;45.572;38.086;2023-12-07T00:10:49;2.08;;;1.40;;
67363;SDS011;54250;45.572;38.086;2023-12-07T00:13:15;0.85;;;0.82;;
67363;SDS011;54250;45.572;38.086;2023-12-07T00:15:42;1.02;;;0.98;;
67363;SDS011;54250;45.572;38.086;2023-12-07T00:18:08;3.13;;;1.88;;
67363;SDS011;54250;45.572;38.086;2023-12-07T00:20:34;1.98;;;1.73;;
67363;SDS011;54250;45.572;38.086;2023-12-07T00:23:00;1.35;;;0.98;;
67363;SDS011;54250;45.572;38.086;2023-12-07T00:25:26;2.47;;;1.70;;
67363;SDS011;54250;45.572;38.086;2023-12-07T00:27:52;1.33;;;1.08;;
67363;SDS011;54250;45.572;38.086;2023-12-07T00:30:18;6.22;;;2.70;;
67363;SDS011;54250;45.572;38.086;2023-12-07T00:32:44;2.05;;;1.85;;
67363;SDS011;54250;45.572;38.086;2023-12-07T00:35:10;2.25;;;1.90;;
67363;SDS011;54250;45.572;38.086;2023-12-07T00:37:36;1.17;;;1.08;;
67363;SDS011;54250;45.572;38.086;2023-12-07T00:40:02;2.10;;;1.42;;
67363;SDS011;54250;45.572;38.086;2023-12-07T00:42:29;2.50;;;1.67;;
67363;SDS011;54250;45.572;38.086;2023-12-07T00:44:55;1.88;;;1.67;;
67363;SDS011;54250;45.572;38.086;2023-12-07T00:47:22;0.43;;;0.43;;
67363;SDS011;54250;45.572;38.086;2023-12-07T00:49:48;2.47;;;2.08;;
67363;SDS011;54250;45.572;38.086;2023-12-07T00:52:14;3.17;;;1.92;;
67363;SDS011;54250;45.572;38.086;2023-12-07T00:54:40;1.80;;;1.35;;
67363;SDS011;54250;45.572;38.086;2023-12-07T00:57:06;2.25;;;1.50;;
67363;SDS011;54250;45.572;38.086;2023-12-07T00:59:32;1.80;;;1.48;;
67363;SDS011;54250;45.572;38.086;2023-12-07T01:02:08;3.03;;;2.10;;
67363;SDS011;54250;45.572;38.086;2023-12-07T01:04:33;1.13;;;1.02;;
67363;SDS011;54250;45.572;38.086;2023-12-07T01:06:59;1.60;;;1.35;;
67363;SDS011;54250;45.572;38.086;2023-12-07T01:09:26;2.38;;;1.80;;
67363;SDS011;54250;45.572;38.086;2023-12-07T01:11:51;1.40;;;1.30;;
67363;SDS011;54250;45.572;38.086;2023-12-07T01:14:18;4.45;;;3.15;;
67363;SDS011;54250;45.572;38.086;2023-12-07T01:16:44;3.53;;;2.50;;
67363;SDS011;54250;45.572;38.086;2023-12-07T01:19:10;1.40;;;1.30;;
67363;SDS011;54250;45.572;38.086;2023-12-07T01:21:40;3.35;;;2.35;;
67363;SDS011;54250;45.572;38.086;2023-12-07T01:24:07;4.90;;;2.22;;
67363;SDS011;54250;45.572;38.086;2023-12-07T01:26:33;4.70;;;2.00;;
67363;SDS011;54250;45.572;38.086;2023-12-07T01:28:59;2.75;;;1.65;;
67363;SDS011;54250;45.572;38.086;2023-12-07T01:31:25;2.60;;;0.95;;
67363;SDS011;54250;45.572;38.086;2023-12-07T01:33:51;4.32;;;2.45;;
67363;SDS011;54250;45.572;38.086;2023-12-07T01:36:17;1.60;;;1.23;;
67363;SDS011;54250;45.572;38.086;2023-12-07T01:38:43;4.40;;;2.83;;
67363;SDS011;54250;45.572;38.086;2023-12-07T01:41:09;2.67;;;1.92;;
67363;SDS011;54250;45.572;38.086;2023-12-07T01:43:35;2.03;;;1.63;;
67363;SDS011;54250;45.572;38.086;2023-12-07T01:46:01;5.00;;;2.45;;
67363;SDS011;54250;45.572;38.086;2023-12-07T01:48:28;3.67;;;2.45;;
67363;SDS011;54250;45.572;38.086;2023-12-07T01:50:56;4.30;;;1.80;;
67363;SDS011;54250;45.572;38.086;2023-12-07T01:53:23;2.75;;;1.33;;
67363;SDS011;54250;45.572;38.086;2023-12-07T01:55:51;2.75;;;1.30;;
67363;SDS011;54250;45.572;38.086;2023-12-07T01:58:18;0.90;;;0.90;;
67363;SDS011;54250;45.572;38.086;2023-12-07T02:00:45;1.55;;;1.23;;
67363;SDS011;54250;45.572;38.086;2023-12-07T02:03:12;2.78;;;1.67;;
67363;SDS011;54250;45.572;38.086;2023-12-07T02:05:41;1.30;;;1.20;;
67363;SDS011;54250;45.572;38.086;2023-12-07T02:08:08;1.60;;;1.40;;
67363;SDS011;54250;45.572;38.086;2023-12-07T02:10:34;2.55;;;1.23;;
67363;SDS011;54250;45.572;38.086;2023-12-07T02:13:00;2.38;;;1.38;;
67363;SDS011;54250;45.572;38.086;2023-12-07T02:15:26;1.30;;;1.08;;
67363;SDS011;54250;45.572;38.086;2023-12-07T02:17:56;1.77;;;1.00;;
67363;SDS011;54250;45.572;38.086;2023-12-07T02:20:45;2.63;;;1.23;;
67363;SDS011;54250;45.572;38.086;2023-12-07T02:23:33;1.15;;;0.82;;
67363;SDS011;54250;45.572;38.086;2023-12-07T02:26:02;1.65;;;1.20;;
67363;SDS011;54250;45.572;38.086;2023-12-07T02:28:29;1.73;;;1.15;;
67363;SDS011;54250;45.572;38.086;2023-12-07T02:30:55;1.15;;;0.88;;
67363;SDS011;54250;45.572;38.086;2023-12-07T02:33:21;1.90;;;1.33;;
67363;SDS011;54250;45.572;38.086;2023-12-07T02:35:47;1.48;;;0.82;;
67363;SDS011;54250;45.572;38.086;2023-12-07T02:38:13;2.60;;;1.60;;
67363;SDS011;54250;45.572;38.086;2023-12-07T02:40:40;1.23;;;1.13;;
67363;SDS011;54250;45.572;38.086;2023-12-07T02:43:08;1.30;;;1.20;;
67363;SDS011;54250;45.572;38.086;2023-12-07T02:45:34;2.75;;;1.75;;
67363;SDS011;54250;45.572;38.086;2023-12-07T02:48:00;1.25;;;1.10;;
67363;SDS011;54250;45.572;38.086;2023-12-07T02:50:26;1.00;;;0.90;;
67363;SDS011;54250;45.572;38.086;2023-12-07T02:52:52;1.33;;;1.23;;
67363;SDS011;54250;45.572;38.086;2023-12-07T02:55:18;0.45;;;0.45;;
67363;SDS011;54250;45.572;38.086;2023-12-07T02:57:45;1.20;;;1.00;;
67363;SDS011;54250;45.572;38.086;2023-12-07T03:00:11;2.85;;;1.02;;
67363;SDS011;54250;45.572;38.086;2023-12-07T03:02:39;1.05;;;0.95;;
67363;SDS011;54250;45.572;38.086;2023-12-07T03:05:06;6.60;;;2.13;;
67363;SDS011;54250;45.572;38.086;2023-12-07T03:07:36;1.45;;;0.77;;
67363;SDS011;54250;45.572;38.086;2023-12-07T03:10:02;1.17;;;0.80;;
67363;SDS011;54250;45.572;38.086;2023-12-07T03:12:28;0.95;;;0.73;;
67363;SDS011;54250;45.572;38.086;2023-12-07T03:14:54;2.13;;;1.25;;
67363;SDS011;54250;45.572;38.086;2023-12-07T03:17:20;4.38;;;0.95;;
67363;SDS011;54250;45.572;38.086;2023-12-07T03:19:46;0.75;;;0.45;;
67363;SDS011;54250;45.572;38.086;2023-12-07T03:22:11;1.05;;;0.52;;
67363;SDS011;54250;45.572;38.086;2023-12-07T03:24:39;1.10;;;1.00;;
67363;SDS011;54250;45.572;38.086;2023-12-07T03:27:09;0.80;;;0.73;;
67363;SDS011;54250;45.572;38.086;2023-12-07T03:29:35;0.82;;;0.80;;
67363;SDS011;54250;45.572;38.086;2023-12-07T03:32:01;1.00;;;0.85;;
67363;SDS011;54250;45.572;38.086;2023-12-07T03:34:27;1.00;;;0.90;;
67363;SDS011;54250;45.572;38.086;2023-12-07T03:36:52;0.50;;;0.50;;
67363;SDS011;54250;45.572;38.086;2023-12-07T03:39:18;0.57;;;0.57;;
67363;SDS011;54250;45.572;38.086;2023-12-07T03:41:46;2.50;;;1.20;;
67363;SDS011;54250;45.572;38.086;2023-12-07T03:44:12;1.98;;;1.30;;
67363;SDS011;54250;45.572;38.086;2023-12-07T03:46:38;3.60;;;1.55;;
67363;SDS011;54250;45.572;38.086;2023-12-07T03:49:04;2.15;;;1.10;;
67363;SDS011;54250;45.572;38.086;2023-12-07T03:51:30;2.58;;;0.93;;
67363;SDS011;54250;45.572;38.086;2023-12-07T03:53:56;1.50;;;0.80;;
67363;SDS011;54250;45.572;38.086;2023-12-07T03:56:23;1.42;;;1.00;;
67363;SDS011;54250;45.572;38.086;2023-12-07T03:58:49;0.77;;;0.77;;
67363;SDS011;54250;45.572;38.086;2023-12-07T04:01:15;1.90;;;1.45;;
67363;SDS011;54250;45.572;38.086;2023-12-07T04:03:41;1.88;;;1.13;;
67363;SDS011;54250;45.572;38.086;2023-12-07T04:06:08;2.38;;;0.47;;
67363;SDS011;54250;45.572;38.086;2023-12-07T04:08:34;2.33;;;0.95;;
67363;SDS011;54250;45.572;38.086;2023-12-07T04:11:00;0.80;;;0.80;;
67363;SDS011;54250;45.572;38.086;2023-12-07T04:13:26;2.65;;;2.05;;
67363;SDS011;54250;45.572;38.086;2023-12-07T04:15:52;1.70;;;1.10;;
67363;SDS011;54250;45.572;38.086;2023-12-07T04:18:18;2.95;;;1.30;;
67363;SDS011;54250;45.572;38.086;2023-12-07T04:20:44;1.50;;;1.13;;
67363;SDS011;54250;45.572;38.086;2023-12-07T04:23:10;1.77;;;1.65;;
67363;SDS011;54250;45.572;38.086;2023-12-07T04:25:36;0.85;;;0.80;;
67363;SDS011;54250;45.572;38.086;2023-12-07T04:28:02;1.60;;;1.30;;
67363;SDS011;54250;45.572;38.086;2023-12-07T04:30:28;2.08;;;1.27;;
67363;SDS011;54250;45.572;38.086;2023-12-07T04:32:54;1.17;;;0.88;;
67363;SDS011;54250;45.572;38.086;2023-12-07T04:35:20;3.83;;;0.90;;
67363;SDS011;54250;45.572;38.086;2023-12-07T04:37:46;1.58;;;1.20;;
67363;SDS011;54250;45.572;38.086;2023-12-07T04:40:12;1.80;;;1.17;;
67363;SDS011;54250;45.572;38.086;2023-12-07T04:42:38;1.05;;;0.95;;
67363;SDS011;54250;45.572;38.086;2023-12-07T04:45:04;2.65;;;1.38;;
67363;SDS011;54250;45.572;38.086;2023-12-07T04:47:31;0.90;;;0.85;;
67363;SDS011;54250;45.572;38.086;2023-12-07T04:49:58;2.13;;;1.13;;
67363;SDS011;54250;45.572;38.086;2023-12-07T04:52:24;5.70;;;1.60;;
67363;SDS011;54250;45.572;38.086;2023-12-07T04:54:50;3.10;;;1.25;;
67363;SDS011;54250;45.572;38.086;2023-12-07T04:57:16;3.72;;;1.52;;
67363;SDS011;54250;45.572;38.086;2023-12-07T04:59:42;5.63;;;1.23;;
67363;SDS011;54250;45.572;38.086;2023-12-07T05:02:15;0.90;;;0.77;;
67363;SDS011;54250;45.572;38.086;2023-12-07T05:04:42;1.17;;;1.02;;
67363;SDS011;54250;45.572;38.086;2023-12-07T05:07:10;1.35;;;0.60;;
67363;SDS011;54250;45.572;38.086;2023-12-07T05:09:37;1.83;;;0.90;;
67363;SDS011;54250;45.572;38.086;2023-12-07T05:12:03;0.35;;;0.35;;
67363;SDS011;54250;45.572;38.086;2023-12-07T05:14:33;2.30;;;1.20;;
67363;SDS011;54250;45.572;38.086;2023-12-07T05:17:00;2.15;;;1.45;;
67363;SDS011;54250;45.572;38.086;2023-12-07T05:19:26;1.55;;;0.82;;
67363;SDS011;54250;45.572;38.086;2023-12-07T05:21:52;1.13;;;0.98;;
67363;SDS011;54250;45.572;38.086;2023-12-07T05:24:18;1.52;;;1.02;;
67363;SDS011;54250;45.572;38.086;2023-12-07T05:26:45;2.15;;;1.40;;
67363;SDS011;54250;45.572;38.086;2023-12-07T05:29:12;4.50;;;2.13;;
67363;SDS011;54250;45.572;38.086;2023-12-07T05:31:38;1.80;;;1.38;;
67363;SDS011;54250;45.572;38.086;2023-12-07T05:34:05;1.30;;;1.20;;
67363;SDS011;54250;45.572;38.086;2023-12-07T05:36:32;0.80;;;0.55;;
67363;SDS011;54250;45.572;38.086;2023-12-07T05:38:58;1.63;;;1.05;;
67363;SDS011;54250;45.572;38.086;2023-12-07T05:41:24;1.55;;;1.00;;
67363;SDS011;54250;45.572;38.086;2023-12-07T05:43:51;1.40;;;1.30;;
67363;SDS011;54250;45.572;38.086;2023-12-07T05:46:18;0.60;;;0.60;;
67363;SDS011;54250;45.572;38.086;2023-12-07T05:48:44;1.75;;;1.33;;
67363;SDS011;54250;45.572;38.086;2023-12-07T05:51:14;1.20;;;0.68;;
67363;SDS011;54250;45.572;38.086;2023-12-07T05:53:41;5.13;;;1.27;;
67363;SDS011;54250;45.572;38.086;2023-12-07T05:56:08;2.30;;;0.80;;
67363;SDS011;54250;45.572;38.086;2023-12-07T05:58:34;2.40;;;1.25;;
67363;SDS011;54250;45.572;38.086;2023-12-07T06:01:00;0.80;;;0.77;;
67363;SDS011;54250;45.572;38.086;2023-12-07T06:03:27;0.88;;;0.77;;
67363;SDS011;54250;45.572;38.086;2023-12-07T06:05:54;4.22;;;1.58;;
67363;SDS011;54250;45.572;38.086;2023-12-07T06:08:21;3.45;;;1.65;;
67363;SDS011;54250;45.572;38.086;2023-12-07T06:10:47;1.85;;;1.30;;
67363;SDS011;54250;45.572;38.086;2023-12-07T06:13:14;2.35;;;1.00;;
67363;SDS011;54250;45.572;38.086;2023-12-07T06:15:40;1.05;;;0.88;;
67363;SDS011;54250;45.572;38.086;2023-12-07T06:18:06;1.67;;;1.25;;
67363;SDS011;54250;45.572;38.086;2023-12-07T06:20:33;0.95;;;0.88;;
67363;SDS011;54250;45.572;38.086;2023-12-07T06:23:00;2.10;;;1.23;;
67363;SDS011;54250;45.572;38.086;2023-12-07T06:25:27;1.30;;;1.10;;
67363;SDS011;54250;45.572;38.086;2023-12-07T06:27:53;0.73;;;0.73;;
67363;SDS011;54250;45.572;38.086;2023-12-07T06:30:19;1.70;;;1.27;;
67363;SDS011;54250;45.572;38.086;2023-12-07T06:32:46;1.88;;;1.20;;
67363;SDS011;54250;45.572;38.086;2023-12-07T06:35:12;1.50;;;1.30;;
67363;SDS011;54250;45.572;38.086;2023-12-07T06:37:38;0.70;;;0.60;;
67363;SDS011;54250;45.572;38.086;2023-12-07T06:40:07;1.02;;;0.73;;
67363;SDS011;54250;45.572;38.086;2023-12-07T06:42:35;1.05;;;0.82;;
67363;SDS011;54250;45.572;38.086;2023-12-07T06:45:01;1.10;;;1.00;;
67363;SDS011;54250;45.572;38.086;2023-12-07T06:47:28;2.75;;;0.73;;
67363;SDS011;54250;45.572;38.086;2023-12-07T06:49:54;0.90;;;0.90;;
67363;SDS011;54250;45.572;38.086;2023-12-07T06:52:21;1.00;;;1.00;;
67363;SDS011;54250;45.572;38.086;2023-12-07T06:54:47;1.83;;;1.08;;
67363;SDS011;54250;45.572;38.086;2023-12-07T06:57:13;4.07;;;1.27;;
67363;SDS011;54250;45.572;38.086;2023-12-07T06:59:39;1.40;;;1.02;;
67363;SDS011;54250;45.572;38.086;2023-12-07T07:02:06;0.55;;;0.55;;
67363;SDS011;54250;45.572;38.086;2023-12-07T07:04:32;0.95;;;0.93;;
67363;SDS011;54250;45.572;38.086;2023-12-07T07:06:58;1.00;;;0.82;;
67363;SDS011;54250;45.572;38.086;2023-12-07T07:09:24;1.65;;;1.27;;
67363;SDS011;54250;45.572;38.086;2023-12-07T07:11:50;3.17;;;1.50;;
67363;SDS011;54250;45.572;38.086;2023-12-07T07:14:16;3.80;;;2.30;;
67363;SDS011;54250;45.572;38.086;2023-12-07T07:16:42;2.63;;;1.85;;
67363;SDS011;54250;45.572;38.086;2023-12-07T07:19:10;1.98;;;1.40;;
67363;SDS011;54250;45.572;38.086;2023-12-07T07:21:36;1.52;;;1.25;;
67363;SDS011;54250;45.572;38.086;2023-12-07T07:24:02;0.80;;;0.77;;
67363;SDS011;54250;45.572;38.086;2023-12-07T07:26:28;0.60;;;0.60;;
67363;SDS011;54250;45.572;38.086;2023-12-07T07:28:54;4.72;;;1.13;;
67363;SDS011;54250;45.572;38.086;2023-12-07T07:31:20;1.50;;;1.23;;
67363;SDS011;54250;45.572;38.086;2023-12-07T07:33:46;2.85;;;1.67;;
67363;SDS011;54250;45.572;38.086;2023-12-07T07:36:13;0.70;;;0.65;;
67363;SDS011;54250;45.572;38.086;2023-12-07T07:38:42;31.90;;;1.30;;
67363;SDS011;54250;45.572;38.086;2023-12-07T07:41:09;1.70;;;1.40;;
67363;SDS011;54250;45.572;38.086;2023-12-07T07:43:36;0.80;;;0.80;;
67363;SDS011;54250;45.572;38.086;2023-12-07T07:46:05;2.33;;;1.73;;
67363;SDS011;54250;45.572;38.086;2023-12-07T07:48:31;2.72;;;1.20;;
67363;SDS011;54250;45.572;38.086;2023-12-07T07:50:57;7.97;;;1.40;;
67363;SDS011;54250;45.572;38.086;2023-12-07T07:53:24;1.50;;;1.40;;
67363;SDS011;54250;45.572;38.086;2023-12-07T07:55:50;1.13;;;0.90;;
67363;SDS011;54250;45.572;38.086;2023-12-07T07:58:15;1.10;;;0.98;;
67363;SDS011;54250;45.572;38.086;2023-12-07T08:00:41;2.17;;;1.50;;
67363;SDS011;54250;45.572;38.086;2023-12-07T08:03:07;1.20;;;0.90;;
67363;SDS011;54250;45.572;38.086;2023-12-07T08:05:33;4.00;;;1.20;;
67363;SDS011;54250;45.572;38.086;2023-12-07T08:07:59;1.60;;;0.98;;
67363;SDS011;54250;45.572;38.086;2023-12-07T08:10:25;4.50;;;1.73;;
67363;SDS011;54250;45.572;38.086;2023-12-07T08:12:51;1.98;;;1.65;;
67363;SDS011;54250;45.572;38.086;2023-12-07T08:15:17;1.33;;;1.08;;
67363;SDS011;54250;45.572;38.086;2023-12-07T08:17:43;2.15;;;1.48;;
67363;SDS011;54250;45.572;38.086;2023-12-07T08:20:09;0.47;;;0.47;;
67363;SDS011;54250;45.572;38.086;2023-12-07T08:22:39;3.03;;;1.63;;
67363;SDS011;54250;45.572;38.086;2023-12-07T08:25:06;1.75;;;1.17;;
67363;SDS011;54250;45.572;38.086;2023-12-07T08:27:36;2.40;;;1.08;;
67363;SDS011;54250;45.572;38.086;2023-12-07T08:30:03;1.33;;;1.20;;
67363;SDS011;54250;45.572;38.086;2023-12-07T08:32:29;1.70;;;1.42;;
67363;SDS011;54250;45.572;38.086;2023-12-07T08:34:56;1.75;;;1.13;;
67363;SDS011;54250;45.572;38.086;2023-12-07T08:37:22;1.50;;;1.40;;
67363;SDS011;54250;45.572;38.086;2023-12-07T08:39:48;1.77;;;1.35;;
67363;SDS011;54250;45.572;38.086;2023-12-07T08:42:14;2.08;;;1.10;;
67363;SDS011;54250;45.572;38.086;2023-12-07T08:44:40;2.08;;;1.35;;
67363;SDS011;54250;45.572;38.086;2023-12-07T08:47:08;1.10;;;1.00;;
67363;SDS011;54250;45.572;38.086;2023-12-07T08:49:34;1.73;;;1.48;;
67363;SDS011;54250;45.572;38.086;2023-12-07T08:51:59;3.95;;;1.48;;
67363;SDS011;54250;45.572;38.086;2023-12-07T08:54:25;0.95;;;0.88;;
67363;SDS011;54250;45.572;38.086;2023-12-07T08:56:51;0.93;;;0.73;;
67363;SDS011;54250;45.572;38.086;2023-12-07T08:59:17;1.23;;;1.10;;
67363;SDS011;54250;45.572;38.086;2023-12-07T09:01:43;0.77;;;0.77;;
67363;SDS011;54250;45.572;38.086;2023-12-07T09:04:09;1.23;;;1.08;;
67363;SDS011;54250;45.572;38.086;2023-12-07T09:06:36;1.10;;;0.98;;
67363;SDS011;54250;45.572;38.086;2023-12-07T09:09:02;1.42;;;0.98;;
67363;SDS011;54250;45.572;38.086;2023-12-07T09:11:30;1.17;;;1.08;;
67363;SDS011;54250;45.572;38.086;2023-12-07T09:13:56;1.15;;;1.02;;
67363;SDS011;54250;45.572;38.086;2023-12-07T09:16:22;0.93;;;0.77;;
67363;SDS011;54250;45.572;38.086;2023-12-07T09:18:48;1.48;;;0.90;;
67363;SDS011;54250;45.572;38.086;2023-12-07T09:21:15;5.10;;;2.17;;
67363;SDS011;54250;45.572;38.086;2023-12-07T09:23:41;2.05;;;1.50;;
67363;SDS011;54250;45.572;38.086;2023-12-07T09:26:07;2.05;;;1.85;;
67363;SDS011;54250;45.572;38.086;2023-12-07T09:28:33;4.70;;;2.97;;
67363;SDS011;54250;45.572;38.086;2023-12-07T09:30:59;7.65;;;3.72;;
67363;SDS011;54250;45.572;38.086;2023-12-07T09:33:25;8.15;;;5.13;;
67363;SDS011;54250;45.572;38.086;2023-12-07T09:35:52;4.53;;;3.22;;
67363;SDS011;54250;45.572;38.086;2023-12-07T09:38:18;4.93;;;3.38;;
67363;SDS011;54250;45.572;38.086;2023-12-07T09:40:44;2.92;;;2.03;;
67363;SDS011;54250;45.572;38.086;2023-12-07T09:43:11;3.33;;;1.83;;
67363;SDS011;54250;45.572;38.086;2023-12-07T09:45:38;4.78;;;2.35;;
67363;SDS011;54250;45.572;38.086;2023-12-07T09:48:05;6.60;;;3.92;;
67363;SDS011;54250;45.572;38.086;2023-12-07T09:50:33;2.70;;;1.95;;
67363;SDS011;54250;45.572;38.086;2023-12-07T09:52:59;1.98;;;1.40;;
67363;SDS011;54250;45.572;38.086;2023-12-07T09:55:25;1.35;;;1.10;;
67363;SDS011;54250;45.572;38.086;2023-12-07T09:57:51;1.20;;;1.10;;
67363;SDS011;54250;45.572;38.086;2023-12-07T10:00:20;2.30;;;1.40;;
67363;SDS011;54250;45.572;38.086;2023-12-07T10:02:46;2.33;;;1.48;;
67363;SDS011;54250;45.572;38.086;2023-12-07T10:05:13;1.45;;;1.27;;
67363;SDS011;54250;45.572;38.086;2023-12-07T10:07:50;2.15;;;1.08;;
67363;SDS011;54250;45.572;38.086;2023-12-07T10:10:17;8.57;;;1.02;;
67363;SDS011;54250;45.572;38.086;2023-12-07T10:12:56;0.88;;;0.88;;
67363;SDS011;54250;45.572;38.086;2023-12-07T10:15:24;3.55;;;1.88;;
67363;SDS011;54250;45.572;38.086;2023-12-07T10:20:21;14.15;;;5.10;;
67363;SDS011;54250;45.572;38.086;2023-12-07T10:23:07;9.30;;;4.30;;
67363;SDS011;54250;45.572;38.086;2023-12-07T10:25:37;6.00;;;3.35;;
67363;SDS011;54250;45.572;38.086;2023-12-07T10:28:06;3.97;;;2.10;;
67363;SDS011;54250;45.572;38.086;2023-12-07T10:30:34;0.95;;;0.93;;
67363;SDS011;54250;45.572;38.086;2023-12-07T10:33:02;1.27;;;1.15;;
67363;SDS011;54250;45.572;38.086;2023-12-07T10:35:43;2.83;;;2.25;;
67363;SDS011;54250;45.572;38.086;2023-12-07T10:38:09;1.27;;;1.17;;
67363;SDS011;54250;45.572;38.086;2023-12-07T10:40:36;1.15;;;1.05;;
67363;SDS011;54250;45.572;38.086;2023-12-07T10:43:04;1.40;;;1.10;;
67363;SDS011;54250;45.572;38.086;2023-12-07T10:45:31;1.33;;;0.98;;
67363;SDS011;54250;45.572;38.086;2023-12-07T10:48:05;1.23;;;0.93;;
67363;SDS011;54250;45.572;38.086;2023-12-07T10:50:37;1.15;;;0.95;;
67363;SDS011;54250;45.572;38.086;2023-12-07T10:53:09;1.02;;;0.77;;
67363;SDS011;54250;45.572;38.086;2023-12-07T10:55:42;0.40;;;0.40;;
67363;SDS011;54250;45.572;38.086;2023-12-07T10:58:14;1.48;;;0.93;;
67363;SDS011;54250;45.572;38.086;2023-12-07T11:00:42;3.60;;;0.93;;
67363;SDS011;54250;45.572;38.086;2023-12-07T11:03:15;2.90;;;1.20;;
67363;SDS011;54250;45.572;38.086;2023-12-07T11:05:44;0.32;;;0.32;;
67363;SDS011;54250;45.572;38.086;2023-12-07T11:08:15;1.80;;;1.05;;
67363;SDS011;54250;45.572;38.086;2023-12-07T11:10:43;0.40;;;0.40;;
67363;SDS011;54250;45.572;38.086;2023-12-07T11:13:17;1.58;;;0.68;;
67363;SDS011;54250;45.572;38.086;2023-12-07T11:15:50;0.65;;;0.57;;
67363;SDS011;54250;45.572;38.086;2023-12-07T11:18:16;3.92;;;0.80;;
67363;SDS011;54250;45.572;38.086;2023-12-07T11:20:43;0.75;;;0.60;;
67363;SDS011;54250;45.572;38.086;2023-12-07T11:23:11;0.50;;;0.45;;
67363;SDS011;54250;45.572;38.086;2023-12-07T11:25:42;1.33;;;0.70;;
67363;SDS011;54250;45.572;38.086;2023-12-07T11:28:12;1.05;;;0.90;;
67363;SDS011;54250;45.572;38.086;2023-12-07T11:30:40;0.70;;;0.70;;
67363;SDS011;54250;45.572;38.086;2023-12-07T11:33:11;0.60;;;0.60;;
67363;SDS011;54250;45.572;38.086;2023-12-07T11:38:27;0.85;;;0.85;;
67363;SDS011;54250;45.572;38.086;2023-12-07T11:40:54;0.50;;;0.50;;
67363;SDS011;54250;45.572;38.086;2023-12-07T11:45:58;1.05;;;0.80;;
67363;SDS011;54250;45.572;38.086;2023-12-07T11:48:25;0.55;;;0.55;;
67363;SDS011;54250;45.572;38.086;2023-12-07T11:51:01;1.27;;;0.93;;
67363;SDS011;54250;45.572;38.086;2023-12-07T11:53:33;1.70;;;0.95;;
67363;SDS011;54250;45.572;38.086;2023-12-07T11:56:07;1.08;;;0.77;;
67363;SDS011;54250;45.572;38.086;2023-12-07T11:58:35;0.77;;;0.77;;
67363;SDS011;54250;45.572;38.086;2023-12-07T12:01:02;5.75;;;1.00;;
67363;SDS011;54250;45.572;38.086;2023-12-07T12:03:30;0.88;;;0.88;;
67363;SDS011;54250;45.572;38.086;2023-12-07T12:06:01;2.30;;;1.20;;
67363;SDS011;54250;45.572;38.086;2023-12-07T12:08:28;0.68;;;0.65;;
67363;SDS011;54250;45.572;38.086;2023-12-07T12:10:54;2.58;;;0.93;;
67363;SDS011;54250;45.572;38.086;2023-12-07T12:13:29;0.73;;;0.73;;
67363;SDS011;54250;45.572;38.086;2023-12-07T12:15:56;1.75;;;0.77;;
67363;SDS011;54250;45.572;38.086;2023-12-07T12:18:23;1.25;;;0.88;;
67363;SDS011;54250;45.572;38.086;2023-12-07T12:20:51;0.63;;;0.60;;
67363;SDS011;54250;45.572;38.086;2023-12-07T12:23:19;1.20;;;0.80;;
67363;SDS011;54250;45.572;38.086;2023-12-07T12:25:45;0.80;;;0.80;;
67363;SDS011;54250;45.572;38.086;2023-12-07T12:28:13;0.80;;;0.65;;
67363;SDS011;54250;45.572;38.086;2023-12-07T12:30:41;0.70;;;0.70;;
67363;SDS011;54250;45.572;38.086;2023-12-07T12:33:07;0.68;;;0.60;;
67363;SDS011;54250;45.572;38.086;2023-12-07T12:35:33;0.98;;;0.77;;
67363;SDS011;54250;45.572;38.086;2023-12-07T12:37:59;0.70;;;0.70;;
67363;SDS011;54250;45.572;38.086;2023-12-07T12:40:27;0.43;;;0.40;;
67363;SDS011;54250;45.572;38.086;2023-12-07T12:42:57;0.32;;;0.32;;
67363;SDS011;54250;45.572;38.086;2023-12-07T12:45:23;1.73;;;0.70;;
67363;SDS011;54250;45.572;38.086;2023-12-07T12:47:49;1.23;;;0.68;;
67363;SDS011;54250;45.572;38.086;2023-12-07T12:53:00;1.38;;;0.90;;
67363;SDS011;54250;45.572;38.086;2023-12-07T12:55:35;1.00;;;0.90;;
67363;SDS011;54250;45.572;38.086;2023-12-07T12:58:06;0.10;;;0.10;;
67363;SDS011;54250;45.572;38.086;2023-12-07T13:00:39;1.50;;;0.77;;
67363;SDS011;54250;45.572;38.086;2023-12-07T13:03:10;0.70;;;0.70;;
67363;SDS011;54250;45.572;38.086;2023-12-07T13:05:38;0.88;;;0.82;;
67363;SDS011;54250;45.572;38.086;2023-12-07T13:08:04;1.08;;;0.90;;
67363;SDS011;54250;45.572;38.086;2023-12-07T13:10:30;0.40;;;0.35;;
67363;SDS011;54250;45.572;38.086;2023-12-07T13:12:57;0.70;;;0.70;;
67363;SDS011;54250;45.572;38.086;2023-12-07T13:15:22;0.95;;;0.60;;
67363;SDS011;54250;45.572;38.086;2023-12-07T13:17:50;0.75;;;0.57;;
67363;SDS011;54250;45.572;38.086;2023-12-07T13:20:16;2.17;;;1.58;;
67363;SDS011;54250;45.572;38.086;2023-12-07T13:22:42;0.68;;;0.60;;
67363;SDS011;54250;45.572;38.086;2023-12-07T13:25:09;0.50;;;0.50;;
67363;SDS011;54250;45.572;38.086;2023-12-07T13:27:35;0.63;;;0.63;;
67363;SDS011;54250;45.572;38.086;2023-12-07T13:30:02;0.52;;;0.52;;
67363;SDS011;54250;45.572;38.086;2023-12-07T13:32:32;0.40;;;0.30;;
67363;SDS011;54250;45.572;38.086;2023-12-07T13:34:59;0.47;;;0.47;;
67363;SDS011;54250;45.572;38.086;2023-12-07T13:37:26;1.67;;;1.33;;
67363;SDS011;54250;45.572;38.086;2023-12-07T13:39:53;1.33;;;0.93;;
67363;SDS011;54250;45.572;38.086;2023-12-07T13:42:26;4.30;;;1.55;;
67363;SDS011;54250;45.572;38.086;2023-12-07T13:44:53;2.03;;;1.42;;
67363;SDS011;54250;45.572;38.086;2023-12-07T13:47:23;2.50;;;0.80;;
67363;SDS011;54250;45.572;38.086;2023-12-07T13:50:02;0.50;;;0.50;;
67363;SDS011;54250;45.572;38.086;2023-12-07T13:52:29;0.80;;;0.80;;
67363;SDS011;54250;45.572;38.086;2023-12-07T13:54:55;1.80;;;1.13;;
67363;SDS011;54250;45.572;38.086;2023-12-07T13:57:22;1.67;;;1.23;;
67363;SDS011;54250;45.572;38.086;2023-12-07T13:59:52;1.13;;;0.98;;
67363;SDS011;54250;45.572;38.086;2023-12-07T14:02:20;0.82;;;0.60;;
67363;SDS011;54250;45.572;38.086;2023-12-07T14:04:46;0.45;;;0.45;;
67363;SDS011;54250;45.572;38.086;2023-12-07T14:07:16;0.95;;;0.65;;
67363;SDS011;54250;45.572;38.086;2023-12-07T14:09:47;0.82;;;0.68;;
67363;SDS011;54250;45.572;38.086;2023-12-07T14:12:14;0.50;;;0.50;;
67363;SDS011;54250;45.572;38.086;2023-12-07T14:14:44;0.65;;;0.50;;
67363;SDS011;54250;45.572;38.086;2023-12-07T14:17:15;0.80;;;0.52;;
67363;SDS011;54250;45.572;38.086;2023-12-07T14:19:43;0.38;;;0.32;;
67363;SDS011;54250;45.572;38.086;2023-12-07T14:22:09;0.80;;;0.47;;
67363;SDS011;54250;45.572;38.086;2023-12-07T14:24:36;0.32;;;0.32;;
67363;SDS011;54250;45.572;38.086;2023-12-07T14:27:03;0.70;;;0.55;;
67363;SDS011;54250;45.572;38.086;2023-12-07T14:29:31;0.82;;;0.57;;
67363;SDS011;54250;45.572;38.086;2023-12-07T14:31:57;0.08;;;0.08;;
67363;SDS011;54250;45.572;38.086;2023-12-07T14:34:24;0.68;;;0.43;;
67363;SDS011;54250;45.572;38.086;2023-12-07T14:36:54;0.50;;;0.50;;
67363;SDS011;54250;45.572;38.086;2023-12-07T14:39:20;0.60;;;0.50;;
67363;SDS011;54250;45.572;38.086;2023-12-07T14:41:47;2.10;;;0.77;;
67363;SDS011;54250;45.572;38.086;2023-12-07T14:44:14;0.60;;;0.50;;